Aeroporto :
LOGIN :

Iscrizione | Disclaimer

   EN    FR    IT 

 










Sommario :    VFR   VFR Marginale   IFR   IFR Intensivo   IFR Molto Intensivo
Visibilità : 
Base nubi : 
>= 8 km
>= 3000ft
5 / 8 km
1000 / 3000 ft
1500m / 5 km
500 / 1000 ft
800 / 1500m
200 / 500 ft
< 800m
< 200 ft
Simboli :   Temporali  Nebbia  Neve Forte  Precipitazioni Forti  Vento > 20 kt
SIGMETs :   Varie  Temporali  Ghiacco  Turbolenza  Onda orograficha  Ceneri Vulcaniche






- Altitudine del aeroporto : 665 ft
- Codice IATA : NOC


EIKN - Connaught / Knock- Ireland West

ULTIMO METAR :
  • 171500Z 01008KT 330V030 9999 SCT020 SCT040 07/02 Q1019 NOSIG

METARs OBSOLETI :
  • 171430Z 36009KT 9999 SCT022 SCT040 07/03 Q1019 NOSIG
  • 171400Z 01012KT 9999 SCT020 SCT040 07/03 Q1018 NOSIG
  • 171330Z 01012KT 9999 SCT019 SCT040 07/03 Q1018 NOSIG
  • 171300Z 01006KT 340V040 9999 FEW018 SCT023 07/04 Q1018 NOSIG
  • 171230Z 36011KT 9999 FEW019 07/03 Q1018 NOSIG

TAF TAF EIKN
Valido dal 17 a 12 ore il 18 a 12 ore UTC


171100Z 1712/1812 01012KT 9999 SCT020
TEMPO 1712/1715 -SHRA SCT020CB
BECMG 1717/1719 VRB03KT
TEMPO 1800/1809 3000 BR
BECMG 1810/1812 12010KT



MetMap, La meteo Aeronautica in un colpo d'occhio ! - Copyright ORBIFLY Dicembre 2007 - Disclaimer

ORBIFLY MET'MAP TEAM :

Programmazione e sviluppo : Alexandra Zaïnal
Concezione e sviluppo : Baudouin d'Aumeries
Co-Programmazione e sviluppo : Marc-Olivier Méhu
Supporto tecnico e logistico : Manuel Goepfert
Aiuto per la traduzione : Arnaldo La Scala

Contatto : metmap@orbifly.com




FONTI E CREDITI :

   NOAA